sensor_id;sensor_type;location;lat;lon;timestamp;temperature;humidity
10492;DHT22;5293;51.464;-2.566;2023-06-22T00:02:17;18.90;99.90
10492;DHT22;5293;51.464;-2.566;2023-06-22T00:04:43;18.90;99.90
10492;DHT22;5293;51.464;-2.566;2023-06-22T00:07:09;18.90;99.90
10492;DHT22;5293;51.464;-2.566;2023-06-22T00:09:35;18.80;99.90
10492;DHT22;5293;51.464;-2.566;2023-06-22T00:12:01;18.90;99.90
10492;DHT22;5293;51.464;-2.566;2023-06-22T00:14:26;18.80;99.90
10492;DHT22;5293;51.464;-2.566;2023-06-22T00:16:52;18.80;99.90
10492;DHT22;5293;51.464;-2.566;2023-06-22T00:19:23;18.80;99.90
10492;DHT22;5293;51.464;-2.566;2023-06-22T00:21:49;18.80;99.90
10492;DHT22;5293;51.464;-2.566;2023-06-22T00:24:19;18.70;99.90
10492;DHT22;5293;51.464;-2.566;2023-06-22T00:26:45;18.80;99.90
10492;DHT22;5293;51.464;-2.566;2023-06-22T00:29:11;18.80;99.90
10492;DHT22;5293;51.464;-2.566;2023-06-22T00:31:36;18.80;99.90
10492;DHT22;5293;51.464;-2.566;2023-06-22T00:34:02;18.70;99.90
10492;DHT22;5293;51.464;-2.566;2023-06-22T00:36:28;18.60;99.90
10492;DHT22;5293;51.464;-2.566;2023-06-22T00:38:53;18.60;99.90
10492;DHT22;5293;51.464;-2.566;2023-06-22T00:41:19;18.60;99.90
10492;DHT22;5293;51.464;-2.566;2023-06-22T00:43:45;18.60;99.90
10492;DHT22;5293;51.464;-2.566;2023-06-22T00:46:11;18.50;99.90
10492;DHT22;5293;51.464;-2.566;2023-06-22T00:48:37;18.50;99.90
10492;DHT22;5293;51.464;-2.566;2023-06-22T00:51:03;18.50;99.90
10492;DHT22;5293;51.464;-2.566;2023-06-22T00:53:29;18.50;99.90
10492;DHT22;5293;51.464;-2.566;2023-06-22T00:55:55;18.50;99.90
10492;DHT22;5293;51.464;-2.566;2023-06-22T00:58:21;18.50;99.90
10492;DHT22;5293;51.464;-2.566;2023-06-22T01:00:48;18.40;99.90
10492;DHT22;5293;51.464;-2.566;2023-06-22T01:03:13;18.40;99.90
10492;DHT22;5293;51.464;-2.566;2023-06-22T01:05:40;18.40;99.90
10492;DHT22;5293;51.464;-2.566;2023-06-22T01:10:41;18.30;99.90
10492;DHT22;5293;51.464;-2.566;2023-06-22T01:13:32;18.30;99.90
10492;DHT22;5293;51.464;-2.566;2023-06-22T01:16:05;18.30;99.90
10492;DHT22;5293;51.464;-2.566;2023-06-22T01:18:35;18.30;99.90
10492;DHT22;5293;51.464;-2.566;2023-06-22T01:21:04;18.20;99.90
10492;DHT22;5293;51.464;-2.566;2023-06-22T01:26:13;18.10;99.90
10492;DHT22;5293;51.464;-2.566;2023-06-22T01:28:48;18.10;99.90
10492;DHT22;5293;51.464;-2.566;2023-06-22T01:31:17;18.20;99.90
10492;DHT22;5293;51.464;-2.566;2023-06-22T01:33:46;18.20;99.90
10492;DHT22;5293;51.464;-2.566;2023-06-22T01:36:14;18.20;99.90
10492;DHT22;5293;51.464;-2.566;2023-06-22T01:38:42;18.20;99.90
10492;DHT22;5293;51.464;-2.566;2023-06-22T01:41:08;18.20;99.90
10492;DHT22;5293;51.464;-2.566;2023-06-22T01:43:35;18.20;99.90
10492;DHT22;5293;51.464;-2.566;2023-06-22T01:46:02;18.00;99.90
10492;DHT22;5293;51.464;-2.566;2023-06-22T01:48:29;18.00;99.90
10492;DHT22;5293;51.464;-2.566;2023-06-22T01:50:55;18.00;99.90
10492;DHT22;5293;51.464;-2.566;2023-06-22T01:53:21;18.00;99.90
10492;DHT22;5293;51.464;-2.566;2023-06-22T01:55:47;18.00;99.90
10492;DHT22;5293;51.464;-2.566;2023-06-22T01:58:13;18.10;99.90
10492;DHT22;5293;51.464;-2.566;2023-06-22T02:00:41;18.10;99.90
10492;DHT22;5293;51.464;-2.566;2023-06-22T02:03:17;18.10;99.90
10492;DHT22;5293;51.464;-2.566;2023-06-22T02:05:54;18.10;99.90
10492;DHT22;5293;51.464;-2.566;2023-06-22T02:08:23;18.10;99.90
10492;DHT22;5293;51.464;-2.566;2023-06-22T02:10:50;18.20;99.90
10492;DHT22;5293;51.464;-2.566;2023-06-22T02:13:17;18.20;99.90
10492;DHT22;5293;51.464;-2.566;2023-06-22T02:15:43;18.20;99.90
10492;DHT22;5293;51.464;-2.566;2023-06-22T02:18:09;18.20;99.90
10492;DHT22;5293;51.464;-2.566;2023-06-22T02:20:39;18.20;99.90
10492;DHT22;5293;51.464;-2.566;2023-06-22T02:23:06;18.20;99.90
10492;DHT22;5293;51.464;-2.566;2023-06-22T02:25:34;18.20;99.90
10492;DHT22;5293;51.464;-2.566;2023-06-22T02:28:00;18.20;99.90
10492;DHT22;5293;51.464;-2.566;2023-06-22T02:30:25;18.20;99.90
10492;DHT22;5293;51.464;-2.566;2023-06-22T02:32:51;18.20;99.90
10492;DHT22;5293;51.464;-2.566;2023-06-22T02:35:30;18.10;99.90
10492;DHT22;5293;51.464;-2.566;2023-06-22T02:38:02;18.10;99.90
10492;DHT22;5293;51.464;-2.566;2023-06-22T02:40:29;18.00;99.90
10492;DHT22;5293;51.464;-2.566;2023-06-22T02:42:55;18.00;99.90
10492;DHT22;5293;51.464;-2.566;2023-06-22T02:45:21;18.10;99.90
10492;DHT22;5293;51.464;-2.566;2023-06-22T02:47:47;18.00;99.90
10492;DHT22;5293;51.464;-2.566;2023-06-22T02:50:13;18.00;99.90
10492;DHT22;5293;51.464;-2.566;2023-06-22T02:52:39;18.00;99.90
10492;DHT22;5293;51.464;-2.566;2023-06-22T02:55:05;18.00;99.90
10492;DHT22;5293;51.464;-2.566;2023-06-22T02:57:32;17.80;99.90
10492;DHT22;5293;51.464;-2.566;2023-06-22T02:59:59;17.80;99.90
10492;DHT22;5293;51.464;-2.566;2023-06-22T03:02:25;17.80;99.90
10492;DHT22;5293;51.464;-2.566;2023-06-22T03:04:52;17.80;99.90
10492;DHT22;5293;51.464;-2.566;2023-06-22T03:07:22;17.80;99.90
10492;DHT22;5293;51.464;-2.566;2023-06-22T03:09:47;17.80;99.90
10492;DHT22;5293;51.464;-2.566;2023-06-22T03:12:13;17.70;99.90
10492;DHT22;5293;51.464;-2.566;2023-06-22T03:14:39;17.70;99.90
10492;DHT22;5293;51.464;-2.566;2023-06-22T03:17:04;17.80;99.90
10492;DHT22;5293;51.464;-2.566;2023-06-22T03:19:31;17.70;99.90
10492;DHT22;5293;51.464;-2.566;2023-06-22T03:22:00;17.70;99.90
10492;DHT22;5293;51.464;-2.566;2023-06-22T03:24:26;17.70;99.90
10492;DHT22;5293;51.464;-2.566;2023-06-22T03:26:54;17.70;99.90
10492;DHT22;5293;51.464;-2.566;2023-06-22T03:29:20;17.70;99.90
10492;DHT22;5293;51.464;-2.566;2023-06-22T03:31:45;17.60;99.90
10492;DHT22;5293;51.464;-2.566;2023-06-22T03:34:11;17.70;99.90
10492;DHT22;5293;51.464;-2.566;2023-06-22T03:36:37;17.70;99.90
10492;DHT22;5293;51.464;-2.566;2023-06-22T03:39:02;17.70;99.90
10492;DHT22;5293;51.464;-2.566;2023-06-22T03:41:28;17.70;99.90
10492;DHT22;5293;51.464;-2.566;2023-06-22T03:43:54;17.70;99.90
10492;DHT22;5293;51.464;-2.566;2023-06-22T03:46:19;17.70;99.90
10492;DHT22;5293;51.464;-2.566;2023-06-22T03:48:45;17.70;99.90
10492;DHT22;5293;51.464;-2.566;2023-06-22T03:51:11;17.70;99.90
10492;DHT22;5293;51.464;-2.566;2023-06-22T03:53:37;17.70;99.90
10492;DHT22;5293;51.464;-2.566;2023-06-22T03:56:02;17.70;99.90
10492;DHT22;5293;51.464;-2.566;2023-06-22T03:58:28;17.70;99.90
10492;DHT22;5293;51.464;-2.566;2023-06-22T04:00:58;17.70;99.90
10492;DHT22;5293;51.464;-2.566;2023-06-22T04:03:25;17.70;99.90
10492;DHT22;5293;51.464;-2.566;2023-06-22T04:05:51;17.70;99.90
10492;DHT22;5293;51.464;-2.566;2023-06-22T04:08:16;17.60;99.90
10492;DHT22;5293;51.464;-2.566;2023-06-22T04:10:42;17.70;99.90
10492;DHT22;5293;51.464;-2.566;2023-06-22T04:13:08;17.70;99.90
10492;DHT22;5293;51.464;-2.566;2023-06-22T04:15:34;17.60;99.90
10492;DHT22;5293;51.464;-2.566;2023-06-22T04:17:59;17.70;99.90
10492;DHT22;5293;51.464;-2.566;2023-06-22T04:20:25;17.70;99.90
10492;DHT22;5293;51.464;-2.566;2023-06-22T04:22:53;17.70;99.90
10492;DHT22;5293;51.464;-2.566;2023-06-22T04:25:19;17.80;99.90
10492;DHT22;5293;51.464;-2.566;2023-06-22T04:27:45;17.80;99.90
10492;DHT22;5293;51.464;-2.566;2023-06-22T04:30:11;17.80;99.90
10492;DHT22;5293;51.464;-2.566;2023-06-22T04:32:37;17.80;99.90
10492;DHT22;5293;51.464;-2.566;2023-06-22T04:35:03;17.80;99.90
10492;DHT22;5293;51.464;-2.566;2023-06-22T04:37:33;17.80;99.90
10492;DHT22;5293;51.464;-2.566;2023-06-22T04:39:58;17.90;99.90
10492;DHT22;5293;51.464;-2.566;2023-06-22T04:42:27;17.90;99.90
10492;DHT22;5293;51.464;-2.566;2023-06-22T04:44:53;17.90;99.90
10492;DHT22;5293;51.464;-2.566;2023-06-22T04:47:19;17.90;99.90
10492;DHT22;5293;51.464;-2.566;2023-06-22T04:49:45;17.90;99.90
10492;DHT22;5293;51.464;-2.566;2023-06-22T04:52:12;17.90;99.90
10492;DHT22;5293;51.464;-2.566;2023-06-22T04:54:39;17.90;99.90
10492;DHT22;5293;51.464;-2.566;2023-06-22T04:57:07;17.90;99.90
10492;DHT22;5293;51.464;-2.566;2023-06-22T04:59:36;17.90;99.90
10492;DHT22;5293;51.464;-2.566;2023-06-22T05:02:05;17.90;99.90
10492;DHT22;5293;51.464;-2.566;2023-06-22T05:04:31;17.90;99.90
10492;DHT22;5293;51.464;-2.566;2023-06-22T05:06:58;18.00;99.90
10492;DHT22;5293;51.464;-2.566;2023-06-22T05:09:24;18.10;99.90
10492;DHT22;5293;51.464;-2.566;2023-06-22T05:11:50;18.10;99.90
10492;DHT22;5293;51.464;-2.566;2023-06-22T05:14:16;18.10;99.90
10492;DHT22;5293;51.464;-2.566;2023-06-22T05:16:42;18.20;99.90
10492;DHT22;5293;51.464;-2.566;2023-06-22T05:19:08;18.30;99.90
10492;DHT22;5293;51.464;-2.566;2023-06-22T05:21:34;18.30;99.90
10492;DHT22;5293;51.464;-2.566;2023-06-22T05:24:00;18.40;99.90
10492;DHT22;5293;51.464;-2.566;2023-06-22T05:26:29;18.50;99.90
10492;DHT22;5293;51.464;-2.566;2023-06-22T05:28:55;18.50;99.90
10492;DHT22;5293;51.464;-2.566;2023-06-22T05:31:21;18.60;99.90
10492;DHT22;5293;51.464;-2.566;2023-06-22T05:33:48;18.70;99.90
10492;DHT22;5293;51.464;-2.566;2023-06-22T05:36:15;18.80;99.90
10492;DHT22;5293;51.464;-2.566;2023-06-22T05:38:41;18.80;99.90
10492;DHT22;5293;51.464;-2.566;2023-06-22T05:41:07;18.90;99.90
10492;DHT22;5293;51.464;-2.566;2023-06-22T05:43:33;19.00;99.90
10492;DHT22;5293;51.464;-2.566;2023-06-22T05:46:00;19.20;99.90
10492;DHT22;5293;51.464;-2.566;2023-06-22T05:48:26;19.20;99.90
10492;DHT22;5293;51.464;-2.566;2023-06-22T05:50:53;19.20;99.90
10492;DHT22;5293;51.464;-2.566;2023-06-22T05:53:19;19.30;99.90
10492;DHT22;5293;51.464;-2.566;2023-06-22T05:55:44;19.50;99.90
10492;DHT22;5293;51.464;-2.566;2023-06-22T05:58:10;19.60;99.90
10492;DHT22;5293;51.464;-2.566;2023-06-22T06:00:36;19.60;99.90
10492;DHT22;5293;51.464;-2.566;2023-06-22T06:03:02;19.70;99.90
10492;DHT22;5293;51.464;-2.566;2023-06-22T06:05:32;19.80;99.90
10492;DHT22;5293;51.464;-2.566;2023-06-22T06:07:59;19.90;99.90
10492;DHT22;5293;51.464;-2.566;2023-06-22T06:10:25;20.10;99.90
10492;DHT22;5293;51.464;-2.566;2023-06-22T06:12:51;20.20;99.90
10492;DHT22;5293;51.464;-2.566;2023-06-22T06:15:17;20.30;99.90
10492;DHT22;5293;51.464;-2.566;2023-06-22T06:17:50;20.30;99.90
10492;DHT22;5293;51.464;-2.566;2023-06-22T06:20:19;20.40;99.90
10492;DHT22;5293;51.464;-2.566;2023-06-22T06:22:44;20.70;99.90
10492;DHT22;5293;51.464;-2.566;2023-06-22T06:25:10;20.80;99.90
10492;DHT22;5293;51.464;-2.566;2023-06-22T06:27:44;21.00;99.90
10492;DHT22;5293;51.464;-2.566;2023-06-22T06:30:14;21.00;99.90
10492;DHT22;5293;51.464;-2.566;2023-06-22T06:32:41;21.00;99.90
10492;DHT22;5293;51.464;-2.566;2023-06-22T06:35:08;21.20;99.90
10492;DHT22;5293;51.464;-2.566;2023-06-22T06:37:39;21.20;99.90
10492;DHT22;5293;51.464;-2.566;2023-06-22T06:40:09;21.10;99.90
10492;DHT22;5293;51.464;-2.566;2023-06-22T06:42:40;21.20;99.90
10492;DHT22;5293;51.464;-2.566;2023-06-22T06:45:11;21.10;99.90
10492;DHT22;5293;51.464;-2.566;2023-06-22T06:47:37;21.10;99.90
10492;DHT22;5293;51.464;-2.566;2023-06-22T06:50:04;21.20;99.90
10492;DHT22;5293;51.464;-2.566;2023-06-22T06:52:30;21.20;99.90
10492;DHT22;5293;51.464;-2.566;2023-06-22T06:54:55;21.20;99.90
10492;DHT22;5293;51.464;-2.566;2023-06-22T06:57:21;21.20;99.90
10492;DHT22;5293;51.464;-2.566;2023-06-22T06:59:48;21.30;99.90
10492;DHT22;5293;51.464;-2.566;2023-06-22T07:02:17;21.30;99.90
10492;DHT22;5293;51.464;-2.566;2023-06-22T07:04:44;21.20;99.90
10492;DHT22;5293;51.464;-2.566;2023-06-22T07:07:10;21.20;99.90
10492;DHT22;5293;51.464;-2.566;2023-06-22T07:09:35;21.20;99.90
10492;DHT22;5293;51.464;-2.566;2023-06-22T07:12:01;21.10;99.90
10492;DHT22;5293;51.464;-2.566;2023-06-22T07:14:26;21.30;99.90
10492;DHT22;5293;51.464;-2.566;2023-06-22T07:16:52;21.50;99.90
10492;DHT22;5293;51.464;-2.566;2023-06-22T07:19:24;21.50;99.90
10492;DHT22;5293;51.464;-2.566;2023-06-22T07:21:51;21.50;99.90
10492;DHT22;5293;51.464;-2.566;2023-06-22T07:24:16;21.60;99.90
10492;DHT22;5293;51.464;-2.566;2023-06-22T07:26:42;21.70;99.90
10492;DHT22;5293;51.464;-2.566;2023-06-22T07:29:11;21.70;99.90
10492;DHT22;5293;51.464;-2.566;2023-06-22T07:31:37;21.70;99.90
10492;DHT22;5293;51.464;-2.566;2023-06-22T07:34:05;21.70;99.90
10492;DHT22;5293;51.464;-2.566;2023-06-22T07:36:31;21.60;99.90
10492;DHT22;5293;51.464;-2.566;2023-06-22T07:38:56;21.60;99.90
10492;DHT22;5293;51.464;-2.566;2023-06-22T07:41:22;21.60;99.90
10492;DHT22;5293;51.464;-2.566;2023-06-22T07:43:48;21.60;99.90
10492;DHT22;5293;51.464;-2.566;2023-06-22T07:46:13;21.80;99.90
10492;DHT22;5293;51.464;-2.566;2023-06-22T07:48:39;21.90;99.90
10492;DHT22;5293;51.464;-2.566;2023-06-22T07:51:07;21.90;99.90
10492;DHT22;5293;51.464;-2.566;2023-06-22T07:53:33;22.00;99.90
10492;DHT22;5293;51.464;-2.566;2023-06-22T07:55:58;22.10;99.90
10492;DHT22;5293;51.464;-2.566;2023-06-22T07:58:24;22.30;99.90
10492;DHT22;5293;51.464;-2.566;2023-06-22T08:00:49;22.20;99.90
10492;DHT22;5293;51.464;-2.566;2023-06-22T08:03:15;22.10;99.90
10492;DHT22;5293;51.464;-2.566;2023-06-22T08:05:41;22.20;99.90
10492;DHT22;5293;51.464;-2.566;2023-06-22T08:08:07;22.30;99.90
10492;DHT22;5293;51.464;-2.566;2023-06-22T08:10:32;22.40;99.90
10492;DHT22;5293;51.464;-2.566;2023-06-22T08:12:58;22.50;99.90
10492;DHT22;5293;51.464;-2.566;2023-06-22T08:15:25;22.50;99.90
10492;DHT22;5293;51.464;-2.566;2023-06-22T08:17:52;22.60;99.90
10492;DHT22;5293;51.464;-2.566;2023-06-22T08:20:18;22.50;99.90
10492;DHT22;5293;51.464;-2.566;2023-06-22T08:22:44;22.50;99.90
10492;DHT22;5293;51.464;-2.566;2023-06-22T08:25:10;22.60;99.90
10492;DHT22;5293;51.464;-2.566;2023-06-22T08:27:36;22.70;99.90
10492;DHT22;5293;51.464;-2.566;2023-06-22T08:30:02;22.80;99.90
10492;DHT22;5293;51.464;-2.566;2023-06-22T08:32:29;22.70;99.90
10492;DHT22;5293;51.464;-2.566;2023-06-22T08:34:56;22.60;99.90
10492;DHT22;5293;51.464;-2.566;2023-06-22T08:37:22;22.60;99.90
10492;DHT22;5293;51.464;-2.566;2023-06-22T08:39:50;22.70;99.90
10492;DHT22;5293;51.464;-2.566;2023-06-22T08:42:16;22.70;99.90
10492;DHT22;5293;51.464;-2.566;2023-06-22T08:44:41;22.70;99.90
10492;DHT22;5293;51.464;-2.566;2023-06-22T08:47:07;22.80;99.90
10492;DHT22;5293;51.464;-2.566;2023-06-22T08:49:33;22.80;99.90
10492;DHT22;5293;51.464;-2.566;2023-06-22T08:51:58;22.90;99.90
10492;DHT22;5293;51.464;-2.566;2023-06-22T08:54:24;23.00;99.90
10492;DHT22;5293;51.464;-2.566;2023-06-22T08:56:50;23.00;99.90
10492;DHT22;5293;51.464;-2.566;2023-06-22T08:59:15;23.10;99.90
10492;DHT22;5293;51.464;-2.566;2023-06-22T09:01:41;23.20;99.90
10492;DHT22;5293;51.464;-2.566;2023-06-22T09:04:11;23.20;99.90
10492;DHT22;5293;51.464;-2.566;2023-06-22T09:06:37;23.40;99.90
10492;DHT22;5293;51.464;-2.566;2023-06-22T09:09:06;23.50;99.90
10492;DHT22;5293;51.464;-2.566;2023-06-22T09:11:32;23.50;99.90
10492;DHT22;5293;51.464;-2.566;2023-06-22T09:13:58;23.50;99.90
10492;DHT22;5293;51.464;-2.566;2023-06-22T09:16:23;23.40;99.90
10492;DHT22;5293;51.464;-2.566;2023-06-22T09:18:50;23.30;99.90
10492;DHT22;5293;51.464;-2.566;2023-06-22T09:21:16;23.40;99.90
10492;DHT22;5293;51.464;-2.566;2023-06-22T09:23:41;23.50;99.90
10492;DHT22;5293;51.464;-2.566;2023-06-22T09:26:08;23.60;99.90
10492;DHT22;5293;51.464;-2.566;2023-06-22T09:28:34;23.70;99.90
10492;DHT22;5293;51.464;-2.566;2023-06-22T09:31:00;23.80;99.90
10492;DHT22;5293;51.464;-2.566;2023-06-22T09:33:26;23.70;99.90
10492;DHT22;5293;51.464;-2.566;2023-06-22T09:35:52;23.60;99.90
10492;DHT22;5293;51.464;-2.566;2023-06-22T09:38:18;23.70;99.90
10492;DHT22;5293;51.464;-2.566;2023-06-22T09:40:43;23.80;99.90
10492;DHT22;5293;51.464;-2.566;2023-06-22T09:43:09;24.00;99.90
10492;DHT22;5293;51.464;-2.566;2023-06-22T09:45:34;23.90;99.90
10492;DHT22;5293;51.464;-2.566;2023-06-22T09:48:00;24.00;99.90
10492;DHT22;5293;51.464;-2.566;2023-06-22T09:50:26;24.00;99.90
10492;DHT22;5293;51.464;-2.566;2023-06-22T09:52:52;24.10;99.90
10492;DHT22;5293;51.464;-2.566;2023-06-22T09:55:21;24.20;99.90
10492;DHT22;5293;51.464;-2.566;2023-06-22T09:57:46;24.40;99.90
10492;DHT22;5293;51.464;-2.566;2023-06-22T10:00:13;24.40;99.90
10492;DHT22;5293;51.464;-2.566;2023-06-22T10:02:41;24.20;99.90
10492;DHT22;5293;51.464;-2.566;2023-06-22T10:05:07;24.20;99.90
10492;DHT22;5293;51.464;-2.566;2023-06-22T10:07:33;24.20;99.90
10492;DHT22;5293;51.464;-2.566;2023-06-22T10:09:59;24.40;99.90
10492;DHT22;5293;51.464;-2.566;2023-06-22T10:12:26;24.30;99.90
10492;DHT22;5293;51.464;-2.566;2023-06-22T10:14:52;24.20;99.90
10492;DHT22;5293;51.464;-2.566;2023-06-22T10:17:18;24.40;99.90
10492;DHT22;5293;51.464;-2.566;2023-06-22T10:19:44;24.30;99.90
10492;DHT22;5293;51.464;-2.566;2023-06-22T10:22:09;24.10;99.90
10492;DHT22;5293;51.464;-2.566;2023-06-22T10:24:35;24.00;99.90
10492;DHT22;5293;51.464;-2.566;2023-06-22T10:27:01;24.00;99.90
10492;DHT22;5293;51.464;-2.566;2023-06-22T10:29:26;24.20;99.90
10492;DHT22;5293;51.464;-2.566;2023-06-22T10:31:52;24.40;99.90
10492;DHT22;5293;51.464;-2.566;2023-06-22T10:34:18;24.60;99.90
10492;DHT22;5293;51.464;-2.566;2023-06-22T10:36:43;24.60;99.90
10492;DHT22;5293;51.464;-2.566;2023-06-22T10:39:11;24.50;99.90
10492;DHT22;5293;51.464;-2.566;2023-06-22T10:41:37;24.40;99.90
10492;DHT22;5293;51.464;-2.566;2023-06-22T10:44:03;24.50;99.90
10492;DHT22;5293;51.464;-2.566;2023-06-22T10:46:28;24.80;99.90
10492;DHT22;5293;51.464;-2.566;2023-06-22T10:48:54;24.80;99.90
10492;DHT22;5293;51.464;-2.566;2023-06-22T10:51:22;24.80;99.90
10492;DHT22;5293;51.464;-2.566;2023-06-22T10:53:48;25.00;99.90
10492;DHT22;5293;51.464;-2.566;2023-06-22T10:56:13;25.10;99.90
10492;DHT22;5293;51.464;-2.566;2023-06-22T10:58:39;25.30;99.90
10492;DHT22;5293;51.464;-2.566;2023-06-22T11:01:05;25.20;99.90
10492;DHT22;5293;51.464;-2.566;2023-06-22T11:03:30;25.20;99.90
10492;DHT22;5293;51.464;-2.566;2023-06-22T11:05:56;25.20;99.90
10492;DHT22;5293;51.464;-2.566;2023-06-22T11:08:22;25.30;99.90
10492;DHT22;5293;51.464;-2.566;2023-06-22T11:10:47;25.20;99.90
10492;DHT22;5293;51.464;-2.566;2023-06-22T11:13:13;25.10;99.90
10492;DHT22;5293;51.464;-2.566;2023-06-22T11:15:39;25.40;99.90
10492;DHT22;5293;51.464;-2.566;2023-06-22T11:18:05;25.30;99.90
10492;DHT22;5293;51.464;-2.566;2023-06-22T11:20:33;25.30;99.90
10492;DHT22;5293;51.464;-2.566;2023-06-22T11:23:00;25.40;99.90
10492;DHT22;5293;51.464;-2.566;2023-06-22T11:25:25;25.40;99.90
10492;DHT22;5293;51.464;-2.566;2023-06-22T11:27:51;25.40;99.90
10492;DHT22;5293;51.464;-2.566;2023-06-22T11:30:19;25.50;99.90
10492;DHT22;5293;51.464;-2.566;2023-06-22T11:32:45;25.60;99.90
10492;DHT22;5293;51.464;-2.566;2023-06-22T11:35:10;25.40;99.90
10492;DHT22;5293;51.464;-2.566;2023-06-22T11:37:36;25.50;99.90
10492;DHT22;5293;51.464;-2.566;2023-06-22T11:40:02;25.50;99.90
10492;DHT22;5293;51.464;-2.566;2023-06-22T11:42:30;25.60;99.90
10492;DHT22;5293;51.464;-2.566;2023-06-22T11:44:56;25.60;99.90
10492;DHT22;5293;51.464;-2.566;2023-06-22T11:47:22;25.40;99.90
10492;DHT22;5293;51.464;-2.566;2023-06-22T11:49:47;25.40;99.90
10492;DHT22;5293;51.464;-2.566;2023-06-22T11:52:13;25.50;99.90
10492;DHT22;5293;51.464;-2.566;2023-06-22T11:54:39;25.60;99.90
10492;DHT22;5293;51.464;-2.566;2023-06-22T11:57:04;25.90;99.90
10492;DHT22;5293;51.464;-2.566;2023-06-22T11:59:30;25.90;99.90
10492;DHT22;5293;51.464;-2.566;2023-06-22T12:01:57;26.00;99.90
10492;DHT22;5293;51.464;-2.566;2023-06-22T12:04:23;26.10;99.90
10492;DHT22;5293;51.464;-2.566;2023-06-22T12:06:49;26.00;99.90
10492;DHT22;5293;51.464;-2.566;2023-06-22T12:09:15;25.90;99.90
10492;DHT22;5293;51.464;-2.566;2023-06-22T12:11:40;25.90;99.90
10492;DHT22;5293;51.464;-2.566;2023-06-22T12:14:06;25.80;99.90
10492;DHT22;5293;51.464;-2.566;2023-06-22T12:16:32;25.60;99.90
10492;DHT22;5293;51.464;-2.566;2023-06-22T12:18:57;25.70;99.90
10492;DHT22;5293;51.464;-2.566;2023-06-22T12:21:23;25.80;99.90
10492;DHT22;5293;51.464;-2.566;2023-06-22T12:23:48;25.90;99.90
10492;DHT22;5293;51.464;-2.566;2023-06-22T12:26:14;25.90;99.90
10492;DHT22;5293;51.464;-2.566;2023-06-22T12:28:40;25.90;99.90
10492;DHT22;5293;51.464;-2.566;2023-06-22T12:31:05;25.90;99.90
10492;DHT22;5293;51.464;-2.566;2023-06-22T12:33:31;25.80;99.90
10492;DHT22;5293;51.464;-2.566;2023-06-22T12:35:57;25.50;99.90
10492;DHT22;5293;51.464;-2.566;2023-06-22T12:38:23;25.50;99.90
10492;DHT22;5293;51.464;-2.566;2023-06-22T12:40:51;25.60;99.90
10492;DHT22;5293;51.464;-2.566;2023-06-22T12:43:16;25.70;99.90
10492;DHT22;5293;51.464;-2.566;2023-06-22T12:45:42;25.90;99.90
10492;DHT22;5293;51.464;-2.566;2023-06-22T12:48:08;26.10;99.90
10492;DHT22;5293;51.464;-2.566;2023-06-22T12:50:34;26.10;99.90
10492;DHT22;5293;51.464;-2.566;2023-06-22T12:52:59;26.10;99.90
10492;DHT22;5293;51.464;-2.566;2023-06-22T12:55:27;26.00;99.90
10492;DHT22;5293;51.464;-2.566;2023-06-22T12:57:53;26.00;99.90
10492;DHT22;5293;51.464;-2.566;2023-06-22T13:00:19;26.10;99.90
10492;DHT22;5293;51.464;-2.566;2023-06-22T13:02:45;26.20;99.90
10492;DHT22;5293;51.464;-2.566;2023-06-22T13:05:11;26.00;99.90
10492;DHT22;5293;51.464;-2.566;2023-06-22T13:07:36;26.00;99.90
10492;DHT22;5293;51.464;-2.566;2023-06-22T13:10:02;26.00;99.90
10492;DHT22;5293;51.464;-2.566;2023-06-22T13:12:28;26.00;99.90
10492;DHT22;5293;51.464;-2.566;2023-06-22T13:14:54;26.10;99.90
10492;DHT22;5293;51.464;-2.566;2023-06-22T13:17:20;26.10;99.90
10492;DHT22;5293;51.464;-2.566;2023-06-22T13:19:46;26.00;99.90
10492;DHT22;5293;51.464;-2.566;2023-06-22T13:22:31;26.00;99.90
10492;DHT22;5293;51.464;-2.566;2023-06-22T13:24:58;26.00;99.90
10492;DHT22;5293;51.464;-2.566;2023-06-22T13:27:24;26.00;99.90
10492;DHT22;5293;51.464;-2.566;2023-06-22T13:29:50;26.20;99.90
10492;DHT22;5293;51.464;-2.566;2023-06-22T13:32:16;26.00;99.90
10492;DHT22;5293;51.464;-2.566;2023-06-22T13:34:43;25.90;99.90
10492;DHT22;5293;51.464;-2.566;2023-06-22T13:37:08;25.90;99.90
10492;DHT22;5293;51.464;-2.566;2023-06-22T13:39:34;25.90;99.90
10492;DHT22;5293;51.464;-2.566;2023-06-22T13:42:00;25.90;99.90
10492;DHT22;5293;51.464;-2.566;2023-06-22T13:44:26;25.90;99.90
10492;DHT22;5293;51.464;-2.566;2023-06-22T13:46:54;25.90;99.90
10492;DHT22;5293;51.464;-2.566;2023-06-22T13:49:20;25.90;99.90
10492;DHT22;5293;51.464;-2.566;2023-06-22T13:51:47;25.90;99.90
10492;DHT22;5293;51.464;-2.566;2023-06-22T13:54:13;25.90;99.90
10492;DHT22;5293;51.464;-2.566;2023-06-22T13:56:39;25.90;99.90
10492;DHT22;5293;51.464;-2.566;2023-06-22T13:59:05;25.90;99.90
10492;DHT22;5293;51.464;-2.566;2023-06-22T14:01:32;26.00;99.90
10492;DHT22;5293;51.464;-2.566;2023-06-22T14:03:57;25.90;99.90
10492;DHT22;5293;51.464;-2.566;2023-06-22T14:06:23;25.90;99.90
10492;DHT22;5293;51.464;-2.566;2023-06-22T14:08:49;25.90;99.90
10492;DHT22;5293;51.464;-2.566;2023-06-22T14:11:16;25.90;99.90
10492;DHT22;5293;51.464;-2.566;2023-06-22T14:13:42;25.90;99.90
10492;DHT22;5293;51.464;-2.566;2023-06-22T14:16:08;26.00;99.90
10492;DHT22;5293;51.464;-2.566;2023-06-22T14:18:34;25.90;99.90
10492;DHT22;5293;51.464;-2.566;2023-06-22T14:20:59;25.90;99.90
10492;DHT22;5293;51.464;-2.566;2023-06-22T14:23:26;25.90;99.90
10492;DHT22;5293;51.464;-2.566;2023-06-22T14:25:52;25.80;99.90
10492;DHT22;5293;51.464;-2.566;2023-06-22T14:28:18;25.60;99.90
10492;DHT22;5293;51.464;-2.566;2023-06-22T14:30:44;25.70;99.90
10492;DHT22;5293;51.464;-2.566;2023-06-22T14:33:09;25.80;99.90
10492;DHT22;5293;51.464;-2.566;2023-06-22T14:35:35;25.90;99.90
10492;DHT22;5293;51.464;-2.566;2023-06-22T14:38:00;25.90;99.90
10492;DHT22;5293;51.464;-2.566;2023-06-22T14:40:26;26.00;99.90
10492;DHT22;5293;51.464;-2.566;2023-06-22T14:42:52;26.20;99.90
10492;DHT22;5293;51.464;-2.566;2023-06-22T14:45:17;26.10;99.90
10492;DHT22;5293;51.464;-2.566;2023-06-22T14:47:43;26.00;99.90
10492;DHT22;5293;51.464;-2.566;2023-06-22T14:50:09;25.90;99.90
10492;DHT22;5293;51.464;-2.566;2023-06-22T14:52:34;26.10;99.90
10492;DHT22;5293;51.464;-2.566;2023-06-22T14:55:00;26.00;99.90
10492;DHT22;5293;51.464;-2.566;2023-06-22T14:57:26;26.00;99.90
10492;DHT22;5293;51.464;-2.566;2023-06-22T14:59:51;25.90;99.90
10492;DHT22;5293;51.464;-2.566;2023-06-22T15:02:17;26.00;99.90
10492;DHT22;5293;51.464;-2.566;2023-06-22T15:04:43;26.10;99.90
10492;DHT22;5293;51.464;-2.566;2023-06-22T15:07:08;26.10;99.90
10492;DHT22;5293;51.464;-2.566;2023-06-22T15:09:34;26.10;99.90
10492;DHT22;5293;51.464;-2.566;2023-06-22T15:12:00;26.20;99.90
10492;DHT22;5293;51.464;-2.566;2023-06-22T15:14:27;26.40;99.90
10492;DHT22;5293;51.464;-2.566;2023-06-22T15:16:53;26.50;99.90
10492;DHT22;5293;51.464;-2.566;2023-06-22T15:19:18;26.40;99.90
10492;DHT22;5293;51.464;-2.566;2023-06-22T15:21:44;26.30;99.90
10492;DHT22;5293;51.464;-2.566;2023-06-22T15:24:11;26.40;99.90
10492;DHT22;5293;51.464;-2.566;2023-06-22T15:26:36;26.50;99.90
10492;DHT22;5293;51.464;-2.566;2023-06-22T15:29:03;26.50;99.90
10492;DHT22;5293;51.464;-2.566;2023-06-22T15:31:29;26.40;99.90